24°C Temp
12°C Dewpoint
47% Humidity
Temperature
11 KM/H
7 MPH
6 KTS
230°
South West

Wind Speed
Partly Cloudy
Conditions
Pressure 1019.92 (hPa) - 30.12 (in)
Visibility 6.2 (mi) - 10.0 (km)

Current Conditions
LGKV
Location 11(km)
Metar :LGKV 251120Z 23006KT 9999 FEW020 24/12 Q1020
Sat 25th September 13:20 pm

Airport
  Metar Aviation API Data Provided by https://www.checkwx.com/ PHP scripts by weather34.com ©2021